createdAt,value
2022-08-01T00:02:00.555Z,101712.19
2022-08-01T00:04:27.105Z,101703.41
2022-08-01T00:06:54.030Z,101709.09
2022-08-01T00:09:24.184Z,101713.56
2022-08-01T00:11:59.558Z,101698.91
2022-08-01T00:14:32.449Z,101712.44
2022-08-01T00:17:03.748Z,101712.19
2022-08-01T00:19:33.736Z,101708.38
2022-08-01T00:22:00.514Z,101715.84
2022-08-01T00:24:27.105Z,101706.66
2022-08-01T00:26:53.796Z,101700.88
2022-08-01T00:30:10.064Z,101715.84
2022-08-01T00:32:07.394Z,101717.41
2022-08-01T00:34:34.541Z,101710.22
2022-08-01T00:37:01.071Z,101706.56
2022-08-01T00:39:27.701Z,101706.97
2022-08-01T00:41:59.840Z,101708.41
2022-08-01T00:44:27.507Z,101719.69
2022-08-01T00:46:54.215Z,101718.72
2022-08-01T00:49:20.996Z,101702.88
2022-08-01T00:51:47.720Z,101704.88
2022-08-01T00:54:16.727Z,101713.22
2022-08-01T00:56:44.116Z,101709.53
2022-08-01T00:59:14.124Z,101700.34
2022-08-01T01:01:46.436Z,101713.91
2022-08-01T01:04:13.795Z,101702.91
2022-08-01T01:06:52.164Z,101708.41
2022-08-01T01:09:31.596Z,101722.56
2022-08-01T01:12:16.362Z,101718.88
2022-08-01T01:14:52.926Z,101713.38
2022-08-01T01:17:49.508Z,101706.63
2022-08-01T01:20:18.441Z,101713.97
2022-08-01T01:22:54.011Z,101716.78
2022-08-01T01:25:38.953Z,101713.09
2022-08-01T01:28:26.114Z,101703.22
2022-08-01T01:30:56.409Z,101702.66
2022-08-01T01:33:25.054Z,101710.56
2022-08-01T01:35:58.150Z,101714.94
2022-08-01T01:38:30.186Z,101710.84
2022-08-01T01:40:58.724Z,101706.31
2022-08-01T01:43:29.042Z,101720.31
2022-08-01T01:46:02.127Z,101714.50
2022-08-01T01:48:30.073Z,101715.34
2022-08-01T01:50:57.754Z,101709.72
2022-08-01T01:53:26.103Z,101718.03
2022-08-01T01:55:56.450Z,101720.72
2022-08-01T01:58:23.803Z,101714.38
2022-08-01T02:00:53.863Z,101724.00
2022-08-01T02:03:23.130Z,101727.81
2022-08-01T02:05:52.933Z,101715.22
2022-08-01T02:08:20.846Z,101708.88
2022-08-01T02:11:07.750Z,101717.78
2022-08-01T02:13:37.289Z,101725.00
2022-08-01T02:16:04.665Z,101719.75
2022-08-01T02:18:31.735Z,101708.59
2022-08-01T02:21:00.004Z,101706.91
2022-08-01T02:23:31.639Z,101710.72
2022-08-01T02:26:08.634Z,101681.16
2022-08-01T02:28:46.633Z,101711.84
2022-08-01T02:31:17.831Z,101721.91
2022-08-01T02:33:49.284Z,101720.19
2022-08-01T02:36:30.522Z,101716.38
2022-08-01T02:39:07.495Z,101722.19
2022-08-01T02:41:39.469Z,101719.31
2022-08-01T02:44:08.459Z,101729.09
2022-08-01T02:46:41.922Z,101727.66
2022-08-01T02:49:12.037Z,101720.19
2022-08-01T02:51:41.736Z,101731.47
2022-08-01T02:54:10.960Z,101731.78
2022-08-01T02:56:39.182Z,101725.13
2022-08-01T02:59:15.300Z,101728.25
2022-08-01T03:01:44.462Z,101714.22
2022-08-01T03:04:12.020Z,101719.06
2022-08-01T03:06:40.140Z,101720.88
2022-08-01T03:09:09.409Z,101718.63
2022-08-01T03:11:40.681Z,101722.28
2022-08-01T03:14:11.181Z,101720.91
2022-08-01T03:16:38.841Z,101719.31
2022-08-01T03:19:06.148Z,101722.59
2022-08-01T03:21:33.459Z,101717.06
2022-08-01T03:24:02.120Z,101713.84
2022-08-01T03:26:31.559Z,101718.50
2022-08-01T03:29:02.803Z,101721.03
2022-08-01T03:31:31.326Z,101733.31
2022-08-01T03:33:59.135Z,101707.34
2022-08-01T03:36:29.721Z,101716.22
2022-08-01T03:38:59.361Z,101736.00
2022-08-01T03:41:30.337Z,101722.16
2022-08-01T03:44:06.344Z,101732.91
2022-08-01T03:46:46.048Z,101729.78
2022-08-01T03:49:18.342Z,101722.72
2022-08-01T03:51:50.521Z,101730.66
2022-08-01T03:54:21.534Z,101733.47
2022-08-01T03:56:50.846Z,101722.31
2022-08-01T03:59:18.929Z,101739.41
2022-08-01T04:01:47.300Z,101730.91
2022-08-01T04:04:14.347Z,101727.81
2022-08-01T04:06:42.154Z,101734.88
2022-08-01T04:09:13.327Z,101722.59
2022-08-01T04:11:41.803Z,101738.13
2022-08-01T04:14:09.383Z,101730.47
2022-08-01T04:16:36.228Z,101734.47
2022-08-01T04:19:02.846Z,101730.91
2022-08-01T04:21:32.690Z,101716.63
2022-08-01T04:24:04.365Z,101744.63
2022-08-01T04:26:33.154Z,101736.47
2022-08-01T04:29:03.519Z,101741.25
2022-08-01T04:31:31.504Z,101737.13
2022-08-01T04:34:02.765Z,101752.13
2022-08-01T04:36:31.253Z,101737.00
2022-08-01T04:39:01.541Z,101739.41
2022-08-01T04:41:30.738Z,101743.94
2022-08-01T04:44:00.383Z,101767.09
2022-08-01T04:46:29.505Z,101757.06
2022-08-01T04:48:56.951Z,101756.66
2022-08-01T04:51:23.828Z,101767.38
2022-08-01T04:53:51.942Z,101766.97
2022-08-01T04:56:19.989Z,101764.41
2022-08-01T04:58:46.590Z,101765.84
2022-08-01T05:01:15.800Z,101776.03
2022-08-01T05:03:42.368Z,101779.84
2022-08-01T05:06:09.068Z,101771.94
2022-08-01T05:08:37.102Z,101780.25
2022-08-01T05:11:03.874Z,101775.31
2022-08-01T05:13:30.495Z,101772.78
2022-08-01T05:15:57.082Z,101780.69
2022-08-01T05:18:28.141Z,101774.91
2022-08-01T05:20:55.719Z,101778.56
2022-08-01T05:23:34.179Z,101780.53
2022-08-01T05:26:09.362Z,101793.69
2022-08-01T05:28:36.195Z,101786.50
2022-08-01T05:31:03.400Z,101776.44
2022-08-01T05:33:30.026Z,101785.91
2022-08-01T05:35:56.704Z,101796.22
2022-08-01T05:38:23.220Z,101776.56
2022-08-01T05:40:49.906Z,101798.22
2022-08-01T05:43:16.500Z,101792.84
2022-08-01T05:45:43.143Z,101798.50
2022-08-01T05:48:09.681Z,101807.84
2022-08-01T05:50:36.329Z,101783.50
2022-08-01T05:53:03.012Z,101806.72
2022-08-01T05:55:29.749Z,101804.59
2022-08-01T05:57:58.466Z,101803.31
2022-08-01T06:00:24.993Z,101803.88
2022-08-01T06:02:51.582Z,101811.25
2022-08-01T06:05:18.196Z,101814.38
2022-08-01T06:07:44.799Z,101811.53
2022-08-01T06:10:11.819Z,101813.63
2022-08-01T06:12:38.591Z,101809.41
2022-08-01T06:15:06.553Z,101826.50
2022-08-01T06:17:33.326Z,101833.56
2022-08-01T06:20:00.932Z,101830.75
2022-08-01T06:22:27.521Z,101827.94
2022-08-01T06:24:54.601Z,101825.69
2022-08-01T06:27:22.506Z,101829.09
2022-08-01T06:29:53.886Z,101821.59
2022-08-01T06:32:26.718Z,101831.63
2022-08-01T06:34:55.321Z,101827.81
2022-08-01T06:37:22.518Z,101827.09
2022-08-01T06:39:50.786Z,101832.75
2022-08-01T06:42:17.765Z,101837.72
2022-08-01T06:44:44.274Z,101828.09
2022-08-01T06:47:10.939Z,101836.84
2022-08-01T06:49:38.022Z,101835.16
2022-08-01T06:52:05.413Z,101817.59
2022-08-01T06:54:32.399Z,101834.16
2022-08-01T06:56:58.865Z,101832.31
2022-08-01T06:59:25.993Z,101838.22
2022-08-01T07:01:52.694Z,101818.97
2022-08-01T07:04:19.181Z,101835.94
2022-08-01T07:06:45.692Z,101828.47
2022-08-01T07:09:14.553Z,101837.81
2022-08-01T07:11:42.118Z,101840.06
2022-08-01T07:14:08.899Z,101849.69
2022-08-01T07:16:35.646Z,101851.44
2022-08-01T07:19:02.392Z,101843.53
2022-08-01T07:21:39.146Z,101842.94
2022-08-01T07:24:13.622Z,101856.38
2022-08-01T07:26:47.721Z,101856.81
2022-08-01T07:29:19.551Z,101859.66
2022-08-01T07:31:46.029Z,101858.22
2022-08-01T07:34:12.573Z,101873.66
2022-08-01T07:36:39.239Z,101862.78
2022-08-01T07:39:05.780Z,101852.41
2022-08-01T07:41:45.587Z,101831.19
2022-08-01T07:44:18.938Z,101873.34
2022-08-01T07:46:45.475Z,101868.28
2022-08-01T07:49:12.045Z,101857.09
2022-08-01T07:51:39.230Z,101876.75
2022-08-01T07:54:08.036Z,101864.56
2022-08-01T07:56:34.645Z,101892.72
2022-08-01T07:59:01.352Z,101882.25
2022-08-01T08:01:28.392Z,101883.94
2022-08-01T08:03:55.157Z,101880.00
2022-08-01T08:06:22.661Z,101866.53
2022-08-01T08:08:49.229Z,101889.03
2022-08-01T08:11:15.740Z,101894.81
2022-08-01T08:13:42.407Z,101886.75
2022-08-01T08:16:08.991Z,101876.59
2022-08-01T08:18:35.587Z,101894.16
2022-08-01T08:21:06.480Z,101900.41
2022-08-01T08:23:52.100Z,101901.78
2022-08-01T08:26:18.738Z,101905.34
2022-08-01T08:28:45.335Z,101912.28
2022-08-01T08:31:24.996Z,101908.72
2022-08-01T08:33:58.645Z,101911.16
2022-08-01T08:36:31.171Z,101910.84
2022-08-01T08:39:01.625Z,101909.44
2022-08-01T08:41:38.110Z,101913.41
2022-08-01T08:44:10.359Z,101919.34
2022-08-01T08:46:44.965Z,101919.78
2022-08-01T08:49:13.307Z,101923.19
2022-08-01T08:51:42.739Z,101924.44
2022-08-01T08:54:12.166Z,101909.72
2022-08-01T08:56:39.173Z,101901.22
2022-08-01T08:59:05.737Z,101919.91
2022-08-01T09:01:34.421Z,101934.75
2022-08-01T09:04:01.267Z,101935.38
2022-08-01T09:06:29.156Z,101932.06
2022-08-01T09:08:55.645Z,101922.19
2022-08-01T09:11:23.072Z,101921.19
2022-08-01T09:14:14.821Z,101951.34
2022-08-01T09:16:48.831Z,101942.97
2022-08-01T09:19:39.529Z,101942.34
2022-08-01T09:22:10.688Z,101940.91
2022-08-01T09:24:38.355Z,101920.41
2022-08-01T09:27:19.731Z,101940.16
2022-08-01T09:29:49.880Z,101945.03
2022-08-01T09:32:34.320Z,101946.19
2022-08-01T09:35:36.407Z,101967.78
2022-08-01T09:38:20.607Z,101966.44
2022-08-01T09:40:58.925Z,101966.72
2022-08-01T09:43:31.531Z,101982.50
2022-08-01T09:45:59.336Z,101969.88
2022-08-01T09:48:28.591Z,101969.28
2022-08-01T09:51:04.641Z,101977.88
2022-08-01T09:53:51.349Z,101977.69
2022-08-01T09:56:20.812Z,101989.50
2022-08-01T09:58:59.840Z,101982.41
2022-08-01T10:01:36.525Z,101973.00
2022-08-01T10:04:10.729Z,101984.06
2022-08-01T10:06:38.101Z,101978.16
2022-08-01T10:09:05.051Z,101982.38
2022-08-01T10:11:35.974Z,101990.19
2022-08-01T10:14:03.797Z,101968.47
2022-08-01T10:16:31.667Z,101978.47
2022-08-01T10:18:59.772Z,101981.53
2022-08-01T10:21:56.294Z,101987.81
2022-08-01T10:24:19.005Z,101971.06
2022-08-01T10:26:52.552Z,101980.09
2022-08-01T10:29:44.989Z,101977.72
2022-08-01T10:32:10.730Z,101982.88
2022-08-01T10:34:38.306Z,101994.16
2022-08-01T10:37:08.691Z,101978.00
2022-08-01T10:39:36.086Z,101971.19
2022-08-01T10:42:05.841Z,101981.22
2022-08-01T10:44:37.274Z,101985.09
2022-08-01T10:47:10.416Z,101985.06
2022-08-01T10:49:51.007Z,101981.66
2022-08-01T10:52:19.472Z,101976.22
2022-08-01T10:54:52.360Z,101971.78
2022-08-01T10:57:19.637Z,101969.59
2022-08-01T10:59:59.362Z,101977.38
2022-08-01T11:02:31.699Z,101976.13
2022-08-01T11:05:04.469Z,101967.94
2022-08-01T11:07:49.782Z,101972.78
2022-08-01T11:10:19.231Z,101965.72
2022-08-01T11:12:50.635Z,101969.47
2022-08-01T11:15:29.211Z,101973.00
2022-08-01T11:17:58.429Z,101966.91
2022-08-01T11:20:34.278Z,101958.28
2022-08-01T11:23:02.711Z,101958.47
2022-08-01T11:26:05.501Z,101970.47
2022-08-01T11:28:34.870Z,101967.81
2022-08-01T11:31:11.344Z,101981.53
2022-08-01T11:33:45.958Z,101978.47
2022-08-01T11:36:14.402Z,101987.09
2022-08-01T11:39:13.767Z,101994.50
2022-08-01T11:41:41.665Z,101993.69
2022-08-01T11:44:09.976Z,101994.69
2022-08-01T11:46:51.185Z,101990.09
2022-08-01T11:49:41.789Z,101988.22
2022-08-01T11:52:31.046Z,101984.72
2022-08-01T11:55:03.670Z,101983.66
2022-08-01T11:57:35.645Z,101977.06
2022-08-01T12:00:10.896Z,101977.75
2022-08-01T12:02:43.126Z,101983.50
2022-08-01T12:05:15.802Z,101988.06
2022-08-01T12:07:44.255Z,101975.16
2022-08-01T12:10:13.096Z,102001.00
2022-08-01T12:13:02.526Z,101994.91
2022-08-01T12:15:35.190Z,102002.94
2022-08-01T12:18:05.737Z,101990.59
2022-08-01T12:20:35.149Z,101998.06
2022-08-01T12:23:04.056Z,101990.47
2022-08-01T12:25:36.513Z,101986.69
2022-08-01T12:28:06.567Z,102001.47
2022-08-01T12:30:40.028Z,101981.66
2022-08-01T12:33:09.142Z,102006.72
2022-08-01T12:35:37.531Z,101991.66
2022-08-01T12:38:29.079Z,102005.22
2022-08-01T12:40:56.516Z,101993.03
2022-08-01T12:43:29.460Z,101992.69
2022-08-01T12:45:59.951Z,101970.31
2022-08-01T12:48:27.720Z,101966.56
2022-08-01T12:51:01.529Z,101987.09
2022-08-01T12:53:40.511Z,101999.44
2022-08-01T12:56:08.719Z,101995.28
2022-08-01T12:58:35.709Z,101983.38
2022-08-01T13:01:30.673Z,101990.50
2022-08-01T13:04:08.933Z,101985.03
2022-08-01T13:06:43.671Z,101985.72
2022-08-01T13:09:12.426Z,101984.34
2022-08-01T13:12:04.001Z,101983.47
2022-08-01T13:14:30.039Z,101985.47
2022-08-01T13:16:57.580Z,101989.41
2022-08-01T13:19:43.431Z,101972.72
2022-08-01T13:22:10.535Z,101988.69
2022-08-01T13:24:38.098Z,102006.69
2022-08-01T13:27:05.640Z,101987.47
2022-08-01T13:29:43.610Z,101984.03
2022-08-01T13:32:23.352Z,101991.44
2022-08-01T13:35:12.402Z,101978.16
2022-08-01T13:37:41.612Z,101981.91
2022-08-01T13:40:09.783Z,101982.50
2022-08-01T13:42:36.672Z,101986.56
2022-08-01T13:45:14.072Z,101975.47
2022-08-01T13:48:03.794Z,101973.63
2022-08-01T13:50:29.144Z,101966.31
2022-08-01T13:52:55.975Z,101961.25
2022-08-01T13:55:22.635Z,101969.63
2022-08-01T13:57:49.310Z,101964.56
2022-08-01T14:00:16.247Z,101946.28
2022-08-01T14:02:43.001Z,101967.06
2022-08-01T14:05:11.603Z,101966.53
2022-08-01T14:07:45.723Z,101964.50
2022-08-01T14:10:20.127Z,101964.97
2022-08-01T14:12:48.186Z,101965.47
2022-08-01T14:15:14.943Z,101963.16
2022-08-01T14:18:01.924Z,101953.13
2022-08-01T14:20:28.965Z,101946.66
2022-08-01T14:22:55.805Z,101950.16
2022-08-01T14:25:24.083Z,101947.59
2022-08-01T14:28:09.042Z,101962.34
2022-08-01T14:30:35.718Z,101958.13
2022-08-01T14:33:02.189Z,101949.69
2022-08-01T14:35:28.696Z,101938.06
2022-08-01T14:38:21.898Z,101944.09
2022-08-01T14:40:58.472Z,101941.91
2022-08-01T14:43:29.372Z,101950.22
2022-08-01T14:46:00.026Z,101946.81
2022-08-01T14:48:26.585Z,101942.94
2022-08-01T14:50:53.430Z,101950.69
2022-08-01T14:53:19.926Z,101947.47
2022-08-01T14:55:46.569Z,101943.09
2022-08-01T14:58:13.143Z,101954.38
2022-08-01T15:00:39.938Z,101932.16
2022-08-01T15:03:06.580Z,101940.78
2022-08-01T15:05:33.804Z,101940.97
2022-08-01T15:08:00.303Z,101946.66
2022-08-01T15:10:27.192Z,101945.13
2022-08-01T15:12:53.770Z,101962.31
2022-08-01T15:15:20.370Z,101948.16
2022-08-01T15:17:46.987Z,101948.84
2022-08-01T15:20:13.477Z,101934.09
2022-08-01T15:22:39.985Z,101939.91
2022-08-01T15:25:08.026Z,101951.72
2022-08-01T15:27:34.513Z,101945.16
2022-08-01T15:30:01.244Z,101945.69
2022-08-01T15:32:27.890Z,101947.91
2022-08-01T15:34:55.214Z,101939.75
2022-08-01T15:37:22.081Z,101958.78
2022-08-01T15:39:49.503Z,101946.59
2022-08-01T15:42:19.973Z,101966.88
2022-08-01T15:44:52.114Z,101964.16
2022-08-01T15:47:18.634Z,101966.63
2022-08-01T15:49:45.626Z,101966.78
2022-08-01T15:52:21.817Z,101974.94
2022-08-01T15:54:49.112Z,101941.34
2022-08-01T15:57:15.585Z,101962.69
2022-08-01T15:59:42.381Z,101967.09
2022-08-01T16:02:09.371Z,101954.72
2022-08-01T16:04:36.384Z,101952.78
2022-08-01T16:07:06.359Z,101959.75
2022-08-01T16:09:33.003Z,101969.44
2022-08-01T16:11:59.754Z,101964.00
2022-08-01T16:14:26.354Z,101971.16
2022-08-01T16:16:54.912Z,101966.69
2022-08-01T16:19:21.854Z,101970.22
2022-08-01T16:21:48.574Z,101965.22
2022-08-01T16:24:15.175Z,101976.59
2022-08-01T16:26:43.068Z,101959.41
2022-08-01T16:29:10.095Z,101966.81
2022-08-01T16:31:42.623Z,101958.53
2022-08-01T16:34:18.862Z,101949.88
2022-08-01T16:36:50.128Z,101947.63
2022-08-01T16:39:22.509Z,101958.66
2022-08-01T16:41:49.990Z,101971.56
2022-08-01T16:44:33.322Z,101964.06
2022-08-01T16:47:02.389Z,101960.25
2022-08-01T16:49:29.004Z,101965.00
2022-08-01T16:51:55.672Z,101958.19
2022-08-01T16:54:25.158Z,101956.09
2022-08-01T16:56:53.020Z,101949.59
2022-08-01T16:59:19.628Z,101939.78
2022-08-01T17:02:00.105Z,101939.38
2022-08-01T17:04:29.455Z,101949.59
2022-08-01T17:06:56.591Z,101943.41
2022-08-01T17:09:23.507Z,101954.13
2022-08-01T17:11:50.079Z,101954.69
2022-08-01T17:14:18.444Z,101956.41
2022-08-01T17:16:45.248Z,101954.59
2022-08-01T17:19:11.769Z,101960.50
2022-08-01T17:21:41.586Z,101960.13
2022-08-01T17:24:08.388Z,101949.00
2022-08-01T17:26:35.143Z,101956.84
2022-08-01T17:29:02.020Z,101938.38
2022-08-01T17:31:28.545Z,101946.03
2022-08-01T17:33:55.432Z,101945.91
2022-08-01T17:36:22.688Z,101935.47
2022-08-01T17:38:49.282Z,101957.84
2022-08-01T17:41:15.896Z,101945.09
2022-08-01T17:43:42.671Z,101950.09
2022-08-01T17:46:09.311Z,101951.88
2022-08-01T17:48:35.929Z,101955.06
2022-08-01T17:51:02.689Z,101950.38
2022-08-01T17:53:29.583Z,101955.28
2022-08-01T17:55:58.554Z,101946.72
2022-08-01T17:58:33.152Z,101959.84
2022-08-01T18:01:14.357Z,101952.31
2022-08-01T18:03:41.807Z,101956.59
2022-08-01T18:06:10.042Z,101961.75
2022-08-01T18:08:36.790Z,101947.69
2022-08-01T18:11:03.549Z,101952.19
2022-08-01T18:13:30.128Z,101952.09
2022-08-01T18:15:57.190Z,101957.94
2022-08-01T18:18:32.979Z,101961.31
2022-08-01T18:21:03.630Z,101962.97
2022-08-01T18:23:30.241Z,101959.94
2022-08-01T18:25:56.800Z,101965.44
2022-08-01T18:28:32.815Z,101972.06
2022-08-01T18:31:03.249Z,101966.59
2022-08-01T18:33:29.805Z,101959.00
2022-08-01T18:36:02.009Z,101968.47
2022-08-01T18:38:32.920Z,101974.22
2022-08-01T18:41:00.202Z,101962.03
2022-08-01T18:43:26.675Z,101960.28
2022-08-01T18:45:53.250Z,101977.25
2022-08-01T18:48:20.150Z,101961.91
2022-08-01T18:50:46.624Z,101969.88
2022-08-01T18:53:13.390Z,101956.56
2022-08-01T18:55:39.867Z,101968.22
2022-08-01T18:58:06.407Z,101964.66
2022-08-01T19:00:33.465Z,101958.44
2022-08-01T19:02:59.932Z,101935.78
2022-08-01T19:05:26.429Z,101936.00
2022-08-01T19:08:05.322Z,101963.72
2022-08-01T19:10:34.613Z,101975.88
2022-08-01T19:13:02.426Z,101978.72
2022-08-01T19:15:28.970Z,101981.06
2022-08-01T19:17:55.503Z,101971.56
2022-08-01T19:20:22.194Z,101980.97
2022-08-01T19:22:48.696Z,101989.06
2022-08-01T19:25:17.981Z,101981.94
2022-08-01T19:27:49.677Z,101989.69
2022-08-01T19:30:18.207Z,101991.31
2022-08-01T19:32:47.425Z,101994.03
2022-08-01T19:35:17.040Z,102004.13
2022-08-01T19:37:47.202Z,102012.13
2022-08-01T19:40:27.753Z,101998.13
2022-08-01T19:42:56.053Z,102001.94
2022-08-01T19:45:23.034Z,102008.97
2022-08-01T19:47:56.102Z,102012.56
2022-08-01T19:50:27.718Z,102005.75
2022-08-01T19:52:55.409Z,102024.16
2022-08-01T19:55:23.642Z,102026.72
2022-08-01T20:00:40.506Z,102008.28
2022-08-01T20:03:08.986Z,102016.56
2022-08-01T20:05:37.069Z,102011.69
2022-08-01T20:08:05.634Z,102020.22
2022-08-01T20:10:32.492Z,102024.34
2022-08-01T20:12:59.040Z,102022.47
2022-08-01T20:15:25.854Z,102028.56
2022-08-01T20:17:52.597Z,102019.66
2022-08-01T20:20:19.138Z,102016.81
2022-08-01T20:22:49.226Z,102006.19
2022-08-01T20:25:20.137Z,102014.47
2022-08-01T20:27:47.433Z,102012.41
2022-08-01T20:30:14.326Z,102002.44
2022-08-01T20:32:41.252Z,102011.75
2022-08-01T20:35:09.506Z,102010.41
2022-08-01T20:38:06.805Z,102005.44
2022-08-01T20:40:27.061Z,101997.91
2022-08-01T20:42:54.113Z,101992.38
2022-08-01T20:45:22.158Z,101993.44
2022-08-01T20:47:49.937Z,101996.31
2022-08-01T20:50:52.841Z,101997.34
2022-08-01T20:53:22.793Z,102003.44
2022-08-01T20:55:58.400Z,101999.50
2022-08-01T20:58:46.042Z,101995.53
2022-08-01T21:01:16.107Z,102014.66
2022-08-01T21:04:12.541Z,102003.91
2022-08-01T21:06:45.125Z,102018.47
2022-08-01T21:09:17.923Z,102003.19
2022-08-01T21:12:05.406Z,102008.84
2022-08-01T21:14:51.909Z,102015.22
2022-08-01T21:17:46.717Z,102011.38
2022-08-01T21:20:14.808Z,102019.31
2022-08-01T21:22:59.691Z,102019.16
2022-08-01T21:25:31.680Z,102010.81
2022-08-01T21:28:00.566Z,102012.91
2022-08-01T21:30:29.997Z,102015.88
2022-08-01T21:32:56.955Z,102019.00
2022-08-01T21:35:25.836Z,102014.56
2022-08-01T21:37:53.374Z,102016.69
2022-08-01T21:40:22.076Z,102021.34
2022-08-01T21:42:51.533Z,102009.88
2022-08-01T21:45:24.066Z,102016.13
2022-08-01T21:47:51.314Z,102020.19
2022-08-01T21:50:17.910Z,102007.69
2022-08-01T21:52:49.659Z,102015.06
2022-08-01T21:55:35.867Z,102014.94
2022-08-01T21:58:32.635Z,102011.97
2022-08-01T22:01:07.197Z,102016.38
2022-08-01T22:03:47.041Z,102011.13
2022-08-01T22:06:19.958Z,101998.69
2022-08-01T22:08:52.759Z,102007.72
2022-08-01T22:11:22.232Z,102008.16
2022-08-01T22:13:55.230Z,102013.59
2022-08-01T22:16:23.256Z,102010.00
2022-08-01T22:18:51.595Z,102015.09
2022-08-01T22:21:18.667Z,101994.84
2022-08-01T22:23:45.381Z,102003.88
2022-08-01T22:26:12.610Z,102002.63
2022-08-01T22:28:40.730Z,102007.22
2022-08-01T22:31:08.629Z,102000.69
2022-08-01T22:33:37.184Z,101996.88
2022-08-01T22:36:06.031Z,102003.44
2022-08-01T22:38:32.723Z,102006.38
2022-08-01T22:41:06.954Z,102006.13
2022-08-01T22:43:39.916Z,102000.94
2022-08-01T22:46:48.551Z,101985.59
2022-08-01T22:49:21.066Z,101997.22
2022-08-01T22:52:17.376Z,101982.75
2022-08-01T22:54:51.009Z,101997.34
2022-08-01T22:57:28.128Z,101978.56
2022-08-01T23:00:01.606Z,101985.97
2022-08-01T23:02:33.645Z,101975.38
2022-08-01T23:05:25.099Z,101997.47
2022-08-01T23:07:57.121Z,101992.03
2022-08-01T23:10:25.322Z,101983.13
2022-08-01T23:12:54.286Z,101983.53
2022-08-01T23:15:22.136Z,101992.16
2022-08-01T23:17:49.793Z,101974.00
2022-08-01T23:20:17.359Z,101972.78
2022-08-01T23:22:44.791Z,101989.09
2022-08-01T23:25:14.482Z,101984.09
2022-08-01T23:27:55.738Z,101977.91
2022-08-01T23:30:32.656Z,101980.09
2022-08-01T23:32:59.743Z,101984.88
2022-08-01T23:35:27.262Z,101971.75
2022-08-01T23:38:01.893Z,101986.16
2022-08-01T23:40:33.733Z,101955.00
2022-08-01T23:43:02.021Z,101971.53
2022-08-01T23:46:01.798Z,101969.31
2022-08-01T23:48:15.886Z,101983.31
2022-08-01T23:50:42.389Z,101974.91
2022-08-01T23:53:09.036Z,101945.53
2022-08-01T23:55:37.876Z,101968.59
2022-08-01T23:58:06.765Z,101976.16
